Time;durP1;ratioP1;P1;durP2;ratioP2;P2;SDS_P1;SDS_P2;PMS_P1;PMS_P2;Temp;Humidity;BMP_temperature;BMP_pressure;BME280_temperature;BME280_humidity;BME280_pressure;Samples;Min_cycle;Max_cycle;Signal;HPM_P1;HPM_P2
2022/08/25 00:00:46;;;;;;;4.93;1.75;;;22.10;97.30;;;;;;5065881;28;20408;-76
2022/08/25 00:03:12;;;;;;;4.57;1.55;;;22.10;97.20;;;;;;5069558;28;20463;-75
2022/08/25 00:05:38;;;;;;;3.47;1.85;;;22.00;97.10;;;;;;5069902;28;20107;-75
2022/08/25 00:08:06;;;;;;;2.83;1.60;;;21.90;97.00;;;;;;5068920;28;20110;-76
2022/08/25 00:10:37;;;;;;;6.28;1.80;;;21.80;97.20;;;;;;5069254;28;20039;-76
2022/08/25 00:13:04;;;;;;;4.20;1.50;;;21.80;97.20;;;;;;5065805;28;20056;-76
2022/08/25 00:15:30;;;;;;;2.85;1.48;;;21.70;97.30;;;;;;5060727;28;20036;-75
2022/08/25 00:17:58;;;;;;;2.65;1.40;;;21.70;97.40;;;;;;5072251;28;20052;-75
2022/08/25 00:20:24;;;;;;;4.20;1.70;;;21.60;97.40;;;;;;5063495;28;20082;-76
2022/08/25 00:22:50;;;;;;;3.50;1.63;;;21.50;97.70;;;;;;5066040;28;20078;-75
2022/08/25 00:25:17;;;;;;;2.83;1.40;;;21.40;97.80;;;;;;5054237;28;20024;-76
2022/08/25 00:27:43;;;;;;;6.47;2.13;;;21.30;97.90;;;;;;5048346;28;20394;-75
2022/08/25 00:30:09;;;;;;;3.55;1.98;;;21.30;98.10;;;;;;5069185;28;20029;-75
2022/08/25 00:32:35;;;;;;;2.67;1.33;;;21.20;98.20;;;;;;5059897;28;20039;-76
2022/08/25 00:35:02;;;;;;;6.70;1.70;;;21.20;98.30;;;;;;5057391;28;20051;-76
2022/08/25 00:37:28;;;;;;;5.68;2.30;;;21.20;98.20;;;;;;5069442;28;20090;-75
2022/08/25 00:39:55;;;;;;;3.03;1.85;;;21.30;98.20;;;;;;5056232;28;20033;-76
2022/08/25 00:42:22;;;;;;;4.20;2.22;;;21.20;98.30;;;;;;5071736;28;20082;-76
2022/08/25 00:44:48;;;;;;;3.78;1.58;;;21.20;98.30;;;;;;5069464;28;20071;-75
2022/08/25 00:47:14;;;;;;;5.22;1.60;;;21.20;98.50;;;;;;5058865;28;20053;-76
2022/08/25 00:49:45;;;;;;;3.17;1.67;;;21.10;98.40;;;;;;5061431;28;20440;-75
2022/08/25 00:52:13;;;;;;;5.40;1.75;;;21.10;98.30;;;;;;5055150;28;20025;-76
2022/08/25 00:55:07;;;;;;;4.03;1.98;;;21.10;98.40;;;;;;5055115;28;20471;-75
2022/08/25 00:57:37;;;;;;;2.80;1.42;;;21.10;98.60;;;;;;5053225;28;20438;-75
2022/08/25 01:00:11;;;;;;;3.20;1.63;;;21.00;98.60;;;;;;5056858;28;20033;-75
2022/08/25 01:02:38;;;;;;;3.28;1.75;;;21.00;98.70;;;;;;5053906;28;20032;-76
2022/08/25 01:05:05;;;;;;;4.20;1.70;;;21.00;98.70;;;;;;5048090;28;20040;-75
2022/08/25 01:07:32;;;;;;;3.65;1.63;;;20.90;98.90;;;;;;5062468;28;20060;-76
2022/08/25 01:09:59;;;;;;;3.20;1.60;;;20.90;99.10;;;;;;5050598;28;20106;-76
2022/08/25 01:12:25;;;;;;;2.83;1.60;;;21.00;98.90;;;;;;5052559;28;20102;-76
2022/08/25 01:14:51;;;;;;;3.22;1.92;;;21.00;98.90;;;;;;5052090;28;20040;-75
2022/08/25 01:17:19;;;;;;;3.03;1.83;;;21.00;98.70;;;;;;5061207;28;20031;-75
2022/08/25 01:19:45;;;;;;;3.40;1.90;;;21.00;98.70;;;;;;5069162;28;20047;-75
2022/08/25 01:22:12;;;;;;;5.07;1.90;;;20.90;98.80;;;;;;5068467;28;20044;-76
2022/08/25 01:24:49;;;;;;;3.40;1.75;;;20.90;99.00;;;;;;5068745;28;20029;-75
2022/08/25 01:27:15;;;;;;;3.40;1.98;;;20.90;99.00;;;;;;5069024;28;20028;-76
2022/08/25 01:29:41;;;;;;;3.13;1.85;;;20.80;99.00;;;;;;5066907;28;20430;-75
2022/08/25 01:32:12;;;;;;;3.72;2.00;;;20.80;99.30;;;;;;5064732;28;20116;-76
2022/08/25 01:34:40;;;;;;;3.58;2.25;;;20.70;99.40;;;;;;5060042;28;20398;-75
2022/08/25 01:37:07;;;;;;;3.53;1.77;;;20.70;99.20;;;;;;5068705;28;20466;-76
2022/08/25 01:39:35;;;;;;;6.95;1.65;;;20.70;99.20;;;;;;5068125;28;20028;-76
2022/08/25 01:42:12;;;;;;;4.20;1.63;;;20.70;99.20;;;;;;5070071;28;20028;-76
2022/08/25 01:44:42;;;;;;;3.72;1.90;;;20.80;99.10;;;;;;5066719;28;20541;-75
2022/08/25 01:47:08;;;;;;;3.03;1.70;;;20.80;98.90;;;;;;5070353;28;20032;-75
2022/08/25 01:49:35;;;;;;;4.65;2.00;;;20.80;99.10;;;;;;5062388;28;20033;-75
2022/08/25 01:52:12;;;;;;;3.33;1.83;;;20.80;99.30;;;;;;5059814;28;20079;-76
2022/08/25 01:54:37;;;;;;;7.38;2.45;;;20.60;99.50;;;;;;5055469;28;20547;-75
2022/08/25 01:57:03;;;;;;;4.63;2.15;;;20.50;99.80;;;;;;5068117;28;20135;-75
2022/08/25 01:59:29;;;;;;;3.92;1.67;;;20.50;99.90;;;;;;5066483;28;20482;-75
2022/08/25 02:01:55;;;;;;;3.67;1.48;;;20.40;99.90;;;;;;5063743;28;20449;-75
2022/08/25 02:04:21;;;;;;;5.05;1.70;;;20.30;99.90;;;;;;5069428;28;20202;-75
2022/08/25 02:06:46;;;;;;;2.45;1.65;;;20.30;99.90;;;;;;5069989;28;20079;-75
2022/08/25 02:09:15;;;;;;;4.15;1.95;;;20.40;99.90;;;;;;5065431;28;20083;-75
2022/08/25 02:11:44;;;;;;;6.13;2.08;;;20.50;99.80;;;;;;5067566;28;20028;-75
2022/08/25 02:14:11;;;;;;;2.50;1.48;;;20.60;99.60;;;;;;5069919;28;20447;-76
2022/08/25 02:16:39;;;;;;;2.53;1.48;;;20.60;99.50;;;;;;5067430;28;20028;-75
2022/08/25 02:19:08;;;;;;;4.43;1.85;;;20.70;99.50;;;;;;5069184;28;20081;-76
2022/08/25 02:21:34;;;;;;;3.47;1.83;;;20.60;99.60;;;;;;5062799;28;20150;-75
2022/08/25 02:24:00;;;;;;;3.58;1.67;;;20.70;99.70;;;;;;5052551;28;20033;-76
2022/08/25 02:26:27;;;;;;;3.17;1.83;;;20.70;99.70;;;;;;5066872;28;20105;-75
2022/08/25 02:28:53;;;;;;;3.45;1.70;;;20.60;99.60;;;;;;5060157;28;20028;-75
2022/08/25 02:31:22;;;;;;;3.17;1.70;;;20.70;99.60;;;;;;5069021;28;20497;-75
2022/08/25 02:33:48;;;;;;;3.35;1.70;;;20.70;99.60;;;;;;5066754;28;20068;-75
2022/08/25 02:36:14;;;;;;;4.63;1.85;;;20.70;99.60;;;;;;5069856;28;20082;-76
2022/08/25 02:38:41;;;;;;;3.42;1.40;;;20.70;99.40;;;;;;5062538;28;20033;-75
2022/08/25 02:41:13;;;;;;;4.07;1.98;;;20.70;99.40;;;;;;5062761;28;20040;-75
2022/08/25 02:43:41;;;;;;;4.65;1.77;;;20.70;99.40;;;;;;5067567;28;20032;-75
2022/08/25 02:46:08;;;;;;;4.00;2.10;;;20.80;99.30;;;;;;5062464;28;20032;-76
2022/08/25 02:48:33;;;;;;;3.20;2.00;;;20.70;99.30;;;;;;5061967;28;20087;-76
2022/08/25 02:51:00;;;;;;;5.55;1.63;;;20.70;99.60;;;;;;5058868;28;20025;-76
2022/08/25 02:53:27;;;;;;;4.57;1.75;;;20.70;99.60;;;;;;5068694;28;20036;-75
2022/08/25 02:55:54;;;;;;;3.25;1.77;;;20.80;99.60;;;;;;5061086;28;20033;-76
2022/08/25 02:58:20;;;;;;;3.83;2.15;;;20.80;99.60;;;;;;5052637;28;20037;-76
2022/08/25 03:00:47;;;;;;;3.25;1.65;;;20.90;99.50;;;;;;5067753;28;20028;-76
2022/08/25 03:03:13;;;;;;;3.25;1.98;;;21.00;99.30;;;;;;5050655;28;20107;-75
2022/08/25 03:05:39;;;;;;;3.50;1.88;;;21.10;99.20;;;;;;5053216;28;20055;-76
2022/08/25 03:08:06;;;;;;;3.30;1.90;;;21.00;99.10;;;;;;5044657;28;20499;-76
2022/08/25 03:10:32;;;;;;;2.53;1.42;;;20.90;99.10;;;;;;5061581;28;20031;-76
2022/08/25 03:12:58;;;;;;;3.83;2.08;;;20.90;99.20;;;;;;5050555;28;20491;-76
2022/08/25 03:15:26;;;;;;;3.45;1.75;;;21.00;99.00;;;;;;5048290;28;20090;-76
2022/08/25 03:17:53;;;;;;;4.90;1.90;;;21.20;99.10;;;;;;5050114;28;20028;-77
2022/08/25 03:20:21;;;;;;;3.50;1.73;;;21.20;99.00;;;;;;5049836;28;20093;-76
2022/08/25 03:22:47;;;;;;;4.50;1.50;;;21.20;98.90;;;;;;5065418;28;20047;-75
2022/08/25 03:27:58;;;;;;;2.75;1.70;;;20.90;98.90;;;;;;5054923;28;20127;-76
2022/08/25 03:30:25;;;;;;;4.60;1.75;;;20.90;99.00;;;;;;5065264;28;20025;-76
2022/08/25 03:32:50;;;;;;;3.67;2.03;;;20.80;99.50;;;;;;5067423;28;20029;-76
2022/08/25 03:35:16;;;;;;;3.15;1.73;;;20.60;99.80;;;;;;5065884;28;20059;-76
2022/08/25 03:37:42;;;;;;;3.88;2.05;;;20.40;99.90;;;;;;5068768;28;20395;-76
2022/08/25 03:40:10;;;;;;;3.53;2.20;;;20.40;99.90;;;;;;5063291;28;20111;-76
2022/08/25 03:42:40;;;;;;;3.70;2.00;;;20.20;99.90;;;;;;5069582;28;20028;-76
2022/08/25 03:45:07;;;;;;;3.75;1.85;;;20.20;99.90;;;;;;5060900;28;20515;-76
2022/08/25 03:47:33;;;;;;;3.67;1.90;;;20.20;99.90;;;;;;5070480;28;20037;-76
2022/08/25 03:49:59;;;;;;;2.60;1.70;;;19.90;99.90;;;;;;5061774;28;20052;-76
2022/08/25 03:52:25;;;;;;;5.85;1.73;;;20.00;99.90;;;;;;5043427;28;20210;-76
2022/08/25 03:54:51;;;;;;;3.88;2.08;;;20.00;99.90;;;;;;5066319;28;20029;-76
2022/08/25 03:57:19;;;;;;;3.78;1.90;;;19.90;99.90;;;;;;5069037;28;20437;-76
2022/08/25 03:59:45;;;;;;;4.05;1.60;;;19.90;99.90;;;;;;5053291;28;20029;-76
2022/08/25 04:02:11;;;;;;;4.65;2.28;;;19.70;99.90;;;;;;5071505;28;20035;-77
2022/08/25 04:04:36;;;;;;;5.97;2.33;;;19.60;99.90;;;;;;5054542;28;20029;-76
2022/08/25 04:07:02;;;;;;;5.90;2.05;;;19.60;99.90;;;;;;5053048;28;20890;-76
2022/08/25 04:09:28;;;;;;;3.80;1.80;;;19.60;99.90;;;;;;5062107;28;20056;-76
2022/08/25 04:11:54;;;;;;;5.10;1.70;;;19.60;99.90;;;;;;5060008;28;20069;-76
2022/08/25 04:14:20;;;;;;;3.47;2.15;;;19.60;99.90;;;;;;5057247;28;20040;-76
2022/08/25 04:17:01;;;;;;;4.18;1.92;;;19.70;99.90;;;;;;5063623;28;20060;-76
2022/08/25 04:19:27;;;;;;;4.22;2.00;;;19.50;99.90;;;;;;5063158;28;20032;-76
2022/08/25 04:21:53;;;;;;;3.80;2.10;;;19.40;99.90;;;;;;5061226;28;20025;-76
2022/08/25 04:24:20;;;;;;;6.13;1.90;;;19.20;99.90;;;;;;5061427;28;20045;-76
2022/08/25 04:26:49;;;;;;;3.72;1.92;;;19.20;99.90;;;;;;5060248;28;20029;-76
2022/08/25 04:29:18;;;;;;;6.53;1.70;;;19.40;99.90;;;;;;5057058;28;20051;-75
2022/08/25 04:31:49;;;;;;;3.95;1.80;;;19.40;99.90;;;;;;5051635;28;20069;-76
2022/08/25 04:34:17;;;;;;;3.17;1.80;;;19.40;99.90;;;;;;5062514;28;20084;-76
2022/08/25 04:36:43;;;;;;;4.28;1.98;;;19.70;99.90;;;;;;5062154;28;20028;-76
2022/08/25 04:39:08;;;;;;;5.38;2.20;;;19.70;99.90;;;;;;5045899;28;20025;-76
2022/08/25 04:41:34;;;;;;;4.30;2.10;;;19.60;99.90;;;;;;5059375;28;20040;-76
2022/08/25 04:44:01;;;;;;;4.03;1.92;;;19.50;99.90;;;;;;5057890;28;20107;-76
2022/08/25 04:46:30;;;;;;;4.15;2.10;;;19.40;99.90;;;;;;5063825;28;20037;-77
2022/08/25 04:48:57;;;;;;;5.32;2.10;;;19.40;99.90;;;;;;5063407;28;20025;-76
2022/08/25 04:51:29;;;;;;;4.10;1.83;;;19.30;99.90;;;;;;5061989;28;20033;-76
2022/08/25 04:53:58;;;;;;;5.03;2.38;;;19.40;99.90;;;;;;5062894;28;20071;-77
2022/08/25 04:56:24;;;;;;;4.15;1.80;;;19.40;99.90;;;;;;5062400;28;20045;-75
2022/08/25 04:58:51;;;;;;;5.07;2.00;;;19.20;99.90;;;;;;5062831;28;20035;-76
2022/08/25 05:01:20;;;;;;;3.20;1.80;;;19.00;99.90;;;;;;5063700;28;20500;-76
2022/08/25 05:03:51;;;;;;;5.47;2.10;;;18.90;99.90;;;;;;5053230;28;20032;-75
2022/08/25 05:06:17;;;;;;;2.95;1.50;;;18.90;99.90;;;;;;5053323;28;20075;-75
2022/08/25 05:08:43;;;;;;;4.10;1.88;;;18.90;99.90;;;;;;5050156;28;20478;-76
2022/08/25 05:11:12;;;;;;;5.47;2.28;;;18.90;99.90;;;;;;5060111;28;20039;-75
2022/08/25 05:13:37;;;;;;;4.30;2.00;;;19.00;99.90;;;;;;5055847;28;20128;-76
2022/08/25 05:16:04;;;;;;;3.75;1.85;;;19.20;99.90;;;;;;5061074;28;20677;-77
2022/08/25 05:18:31;;;;;;;4.45;2.05;;;19.30;99.90;;;;;;5054389;28;20099;-76
2022/08/25 05:21:02;;;;;;;3.10;1.85;;;19.50;99.90;;;;;;5063548;28;20039;-76
2022/08/25 05:23:27;;;;;;;4.63;2.65;;;19.50;99.90;;;;;;5047310;28;20111;-76
2022/08/25 05:25:53;;;;;;;5.18;2.20;;;19.60;99.90;;;;;;5054625;28;20574;-76
2022/08/25 05:28:19;;;;;;;3.85;2.20;;;19.60;99.90;;;;;;5051880;28;20077;-76
2022/08/25 05:30:48;;;;;;;5.10;2.35;;;19.60;99.90;;;;;;5054397;28;20048;-75
2022/08/25 05:33:15;;;;;;;4.78;2.25;;;19.60;99.90;;;;;;5050006;28;20063;-76
2022/08/25 05:35:41;;;;;;;6.07;2.22;;;19.70;99.90;;;;;;5055847;28;20056;-77
2022/08/25 05:38:07;;;;;;;3.72;2.00;;;19.60;99.90;;;;;;5063114;28;20575;-76
2022/08/25 05:40:33;;;;;;;4.75;2.08;;;19.60;99.90;;;;;;5064104;28;20034;-76
2022/08/25 05:42:59;;;;;;;4.00;1.90;;;19.60;99.90;;;;;;5059771;28;20043;-76
2022/08/25 05:45:25;;;;;;;4.68;2.50;;;19.50;99.90;;;;;;5063038;28;20036;-76
2022/08/25 05:47:50;;;;;;;4.43;2.17;;;19.40;99.90;;;;;;5049588;28;20044;-77
2022/08/25 05:50:17;;;;;;;3.92;2.30;;;19.20;99.90;;;;;;5059610;28;20370;-76
2022/08/25 05:52:44;;;;;;;6.75;2.20;;;19.20;99.90;;;;;;5066244;28;20208;-77
2022/08/25 05:55:10;;;;;;;4.35;2.30;;;19.40;99.90;;;;;;5063146;28;20510;-76
2022/08/25 05:57:36;;;;;;;3.08;2.03;;;19.40;99.90;;;;;;5046910;28;20053;-75
2022/08/25 06:00:04;;;;;;;4.90;2.28;;;19.60;99.90;;;;;;5062506;28;20032;-77
2022/08/25 06:02:48;;;;;;;3.03;2.03;;;19.70;99.90;;;;;;5059141;28;20028;-79
2022/08/25 06:05:20;;;;;;;3.00;1.80;;;19.70;99.90;;;;;;5062722;28;20020;-75
2022/08/25 06:07:48;;;;;;;3.03;1.83;;;19.90;99.90;;;;;;5047917;28;20425;-76
2022/08/25 06:10:15;;;;;;;3.03;1.90;;;20.00;99.90;;;;;;5059386;28;20442;-76
2022/08/25 06:12:43;;;;;;;4.25;2.20;;;20.00;99.90;;;;;;5061969;28;20028;-76
2022/08/25 06:15:11;;;;;;;3.83;2.33;;;20.10;99.90;;;;;;5059697;28;20131;-75
2022/08/25 06:17:41;;;;;;;3.67;1.83;;;20.00;99.90;;;;;;5053274;28;20035;-77
2022/08/25 06:20:10;;;;;;;3.53;2.03;;;20.00;99.90;;;;;;5060279;28;20036;-76
2022/08/25 06:22:36;;;;;;;4.10;1.83;;;20.00;99.90;;;;;;5061639;28;20540;-77
2022/08/25 06:25:06;;;;;;;5.85;2.17;;;20.10;99.90;;;;;;5063039;28;20021;-77
2022/08/25 06:27:32;;;;;;;4.25;2.15;;;20.20;99.90;;;;;;5064714;28;20390;-77
2022/08/25 06:29:58;;;;;;;4.28;2.10;;;20.10;99.90;;;;;;5052320;28;20086;-77
2022/08/25 06:32:25;;;;;;;4.20;2.42;;;20.20;99.90;;;;;;5073335;28;20436;-77
2022/08/25 06:34:50;;;;;;;4.57;2.95;;;20.40;99.90;;;;;;5063149;28;20394;-76
2022/08/25 06:37:16;;;;;;;3.90;1.92;;;20.60;99.90;;;;;;5060801;28;20277;-77
2022/08/25 06:39:42;;;;;;;12.65;2.65;;;20.90;99.90;;;;;;5063272;28;20039;-79
2022/08/25 06:42:08;;;;;;;6.30;2.75;;;21.00;99.90;;;;;;5060061;28;20052;-76
2022/08/25 06:44:34;;;;;;;4.53;2.17;;;21.40;99.90;;;;;;5062511;28;20043;-76
2022/08/25 06:47:00;;;;;;;4.78;2.35;;;21.60;99.90;;;;;;5061032;28;20020;-77
2022/08/25 06:49:27;;;;;;;4.32;1.90;;;22.00;98.90;;;;;;5062210;28;20086;-75
2022/08/25 06:51:53;;;;;;;3.53;1.95;;;22.80;98.70;;;;;;5041086;28;20040;-77
2022/08/25 06:54:19;;;;;;;4.95;2.65;;;23.70;98.00;;;;;;5065323;28;20437;-77
2022/08/25 06:56:45;;;;;;;3.85;2.05;;;24.80;96.30;;;;;;5067284;28;20044;-75
2022/08/25 06:59:11;;;;;;;4.55;2.55;;;25.60;95.60;;;;;;5068154;28;20059;-75
2022/08/25 07:01:37;;;;;;;3.70;2.30;;;26.30;94.90;;;;;;5066334;28;20040;-77
2022/08/25 07:04:05;;;;;;;5.18;2.05;;;25.90;94.20;;;;;;5066013;28;20032;-75
2022/08/25 07:06:34;;;;;;;5.50;2.13;;;26.70;93.10;;;;;;5049885;28;20033;-76
2022/08/25 07:09:00;;;;;;;3.83;2.22;;;26.70;92.40;;;;;;5056046;28;20056;-75
2022/08/25 07:11:27;;;;;;;5.63;2.53;;;27.70;92.30;;;;;;5046434;28;20161;-76
2022/08/25 07:13:53;;;;;;;4.07;2.20;;;28.60;91.30;;;;;;5057327;28;20048;-76
2022/08/25 07:16:19;;;;;;;5.22;1.98;;;30.00;90.50;;;;;;5064606;28;20754;-75
2022/08/25 07:18:46;;;;;;;4.65;2.22;;;29.90;89.90;;;;;;5057778;28;20166;-76
2022/08/25 07:21:13;;;;;;;7.30;2.92;;;30.00;88.70;;;;;;5063742;28;20038;-76
2022/08/25 07:23:40;;;;;;;6.25;2.13;;;29.90;88.70;;;;;;5049068;28;20490;-76
2022/08/25 07:26:12;;;;;;;5.22;2.03;;;29.60;89.80;;;;;;5058940;28;20028;-76
2022/08/25 07:28:39;;;;;;;3.03;1.70;;;29.80;88.30;;;;;;5049543;28;20033;-76
2022/08/25 07:31:05;;;;;;;4.15;2.45;;;29.10;88.40;;;;;;5048329;28;20769;-76
2022/08/25 07:33:31;;;;;;;5.13;2.00;;;29.20;88.80;;;;;;5055743;28;20052;-76
2022/08/25 07:35:57;;;;;;;12.50;2.55;;;28.80;88.10;;;;;;5050234;28;20028;-75
2022/08/25 07:38:23;;;;;;;6.80;2.75;;;26.60;91.10;;;;;;5060228;28;20485;-75
2022/08/25 07:40:53;;;;;;;8.98;2.75;;;25.00;93.10;;;;;;5066985;28;20446;-76
2022/08/25 07:46:41;;;;;;;4.03;2.28;;;23.40;95.30;;;;;;5054707;28;20071;-74
2022/08/25 07:49:07;;;;;;;7.15;2.80;;;23.30;95.90;;;;;;5055893;28;20446;-74
2022/08/25 07:51:33;;;;;;;3.65;2.28;;;23.20;96.60;;;;;;5054724;28;20767;-74
2022/08/25 07:53:59;;;;;;;4.72;2.28;;;23.00;96.10;;;;;;5053604;28;20041;-74
2022/08/25 07:56:25;;;;;;;7.40;2.97;;;23.10;96.50;;;;;;5053192;28;20075;-76
2022/08/25 07:58:50;;;;;;;10.23;2.55;;;23.00;96.70;;;;;;5065823;28;20024;-75
2022/08/25 08:01:19;;;;;;;3.53;2.35;;;22.90;96.90;;;;;;5054427;28;20036;-74
2022/08/25 08:03:46;;;;;;;5.00;2.63;;;22.90;97.70;;;;;;5051898;28;20037;-74
2022/08/25 08:06:14;;;;;;;4.20;2.70;;;22.90;97.40;;;;;;5054484;28;20052;-73
2022/08/25 08:08:44;;;;;;;5.25;2.80;;;23.00;97.20;;;;;;5054189;28;20029;-73
2022/08/25 08:11:27;;;;;;;6.43;2.53;;;23.00;97.70;;;;;;5055857;28;20143;-74
2022/08/25 08:13:55;;;;;;;6.10;2.83;;;23.00;97.20;;;;;;5059348;28;20036;-74
2022/08/25 08:16:24;;;;;;;4.72;2.30;;;23.30;97.40;;;;;;5061033;28;20044;-74
2022/08/25 08:19:08;;;;;;;4.72;2.97;;;23.40;97.30;;;;;;5065123;28;20502;-74
2022/08/25 08:21:35;;;;;;;;;;;23.30;96.80;;;;;;5062927;28;20032;-74
2022/08/25 08:24:01;;;;;;;5.25;2.60;;;23.30;96.70;;;;;;5064606;28;20003;-74
2022/08/25 08:26:27;;;;;;;5.97;2.95;;;23.30;96.20;;;;;;5064695;28;20498;-75
2022/08/25 08:28:53;;;;;;;9.18;2.65;;;23.30;97.10;;;;;;5064165;28;20032;-74
2022/08/25 08:31:21;;;;;;;6.97;2.85;;;23.40;97.20;;;;;;5064697;28;20120;-74
2022/08/25 08:33:48;;;;;;;5.28;2.90;;;23.50;96.90;;;;;;5057942;28;20036;-74
2022/08/25 08:36:15;;;;;;;5.88;2.50;;;23.60;96.40;;;;;;5056814;28;20025;-74
2022/08/25 08:38:41;;;;;;;4.03;2.60;;;23.50;96.40;;;;;;5051341;28;20337;-74
2022/08/25 08:44:38;;;;;;;6.18;3.00;;;25.90;94.90;;;;;;5052319;28;20036;-74
2022/08/25 08:47:18;;;;;;;3.42;2.28;;;27.70;92.90;;;;;;5057198;28;20037;-74
2022/08/25 08:49:59;;;;;;;3.60;2.30;;;28.60;92.20;;;;;;5062636;28;20114;-74
2022/08/25 08:55:57;;;;;;;31.17;3.53;;;29.30;90.80;;;;;;5055344;28;20055;-74
2022/08/25 08:58:35;;;;;;;4.90;2.55;;;30.00;90.20;;;;;;5054483;28;20041;-74
2022/08/25 09:01:00;;;;;;;3.88;2.10;;;29.40;90.10;;;;;;5053278;28;20036;-74
2022/08/25 09:03:34;;;;;;;7.32;2.30;;;28.90;90.10;;;;;;5057538;28;20020;-74
2022/08/25 09:06:07;;;;;;;4.90;2.10;;;29.50;90.00;;;;;;5058625;28;20035;-74
2022/08/25 09:08:35;;;;;;;7.23;2.43;;;30.20;90.20;;;;;;5056474;28;20031;-74
2022/08/25 09:11:31;;;;;;;9.35;3.00;;;30.30;90.20;;;;;;5053952;28;20602;-74
2022/08/25 09:14:06;;;;;;;5.45;2.30;;;30.10;90.10;;;;;;5063664;28;20036;-74
2022/08/25 09:16:55;;;;;;;7.10;2.38;;;29.80;89.90;;;;;;5054700;28;20025;-74
2022/08/25 09:19:36;;;;;;;4.07;2.35;;;28.40;89.40;;;;;;5055617;28;20074;-74
2022/08/25 09:22:23;;;;;;;6.22;2.80;;;27.70;90.20;;;;;;5061699;28;20196;-74
2022/08/25 09:24:52;;;;;;;5.32;2.85;;;27.30;91.20;;;;;;5062950;28;20036;-74
2022/08/25 09:27:39;;;;;;;3.22;1.77;;;27.00;91.10;;;;;;5062207;28;20041;-74
2022/08/25 09:30:06;;;;;;;4.35;2.38;;;26.90;92.00;;;;;;5057271;28;20484;-74
2022/08/25 09:33:00;;;;;;;5.85;2.83;;;26.40;92.80;;;;;;5052669;28;20043;-74
2022/08/25 09:35:29;;;;;;;3.60;2.00;;;26.50;92.20;;;;;;5054771;28;20041;-74
2022/08/25 09:38:07;;;;;;;4.03;2.00;;;26.50;91.30;;;;;;5060030;28;20039;-74
2022/08/25 09:40:39;;;;;;;4.97;2.33;;;26.40;91.50;;;;;;5063825;28;20111;-74
2022/08/25 09:43:19;;;;;;;4.15;2.22;;;26.60;91.80;;;;;;5063239;28;20449;-74
2022/08/25 09:45:48;;;;;;;4.63;2.13;;;26.80;91.60;;;;;;5063687;28;20037;-74
2022/08/25 09:48:20;;;;;;;4.72;2.50;;;26.90;91.30;;;;;;5063805;28;20094;-74
2022/08/25 09:50:47;;;;;;;6.53;2.83;;;27.00;91.70;;;;;;5064477;28;20032;-75
2022/08/25 09:53:14;;;;;;;4.28;1.77;;;26.90;91.50;;;;;;5061307;28;20036;-75
2022/08/25 09:55:43;;;;;;;4.65;2.20;;;26.80;91.70;;;;;;5064431;28;20043;-75
2022/08/25 09:58:23;;;;;;;3.83;2.42;;;26.90;92.10;;;;;;5055781;28;20540;-75
2022/08/25 10:04:11;;;;;;;5.32;2.80;;;27.10;91.50;;;;;;5051016;28;20074;-75
2022/08/25 10:06:46;;;;;;;4.85;2.78;;;27.20;92.20;;;;;;5049749;28;20041;-75
2022/08/25 10:09:39;;;;;;;5.45;2.28;;;26.90;91.00;;;;;;5044436;28;20025;-74
2022/08/25 10:12:19;;;;;;;4.35;2.75;;;27.20;91.50;;;;;;5050821;28;20607;-75
2022/08/25 10:14:46;;;;;;;6.70;2.83;;;27.20;90.70;;;;;;5050929;28;20053;-74
2022/08/25 10:17:23;;;;;;;3.97;2.20;;;27.20;90.80;;;;;;5054617;28;20107;-75
2022/08/25 10:20:09;;;;;;;7.43;1.90;;;27.50;91.30;;;;;;5045503;28;20075;-75
2022/08/25 10:22:39;;;;;;;3.30;1.85;;;27.80;91.30;;;;;;5040619;28;20571;-74
2022/08/25 10:25:13;;;;;;;4.20;1.95;;;27.90;90.30;;;;;;5061580;28;20044;-75
2022/08/25 10:28:04;;;;;;;3.83;2.05;;;27.80;90.40;;;;;;5054544;28;20032;-75
2022/08/25 10:30:55;;;;;;;5.20;2.33;;;27.70;90.40;;;;;;5057974;28;20040;-74
2022/08/25 10:33:44;;;;;;;3.60;2.33;;;28.00;90.40;;;;;;5065693;28;20062;-74
2022/08/25 10:36:34;;;;;;;3.63;1.65;;;28.20;91.10;;;;;;5063271;28;20036;-74
2022/08/25 10:39:01;;;;;;;4.95;1.67;;;28.30;90.70;;;;;;5058494;28;20031;-74
2022/08/25 10:41:54;;;;;;;5.45;2.00;;;28.20;90.10;;;;;;5063060;28;20045;-75
2022/08/25 10:47:30;;;;;;;2.95;1.90;;;28.20;90.30;;;;;;5073879;28;20383;-74
2022/08/25 10:50:22;;;;;;;4.40;2.20;;;28.30;90.30;;;;;;5054722;28;20493;-74
2022/08/25 10:53:09;;;;;;;8.93;2.17;;;28.50;90.20;;;;;;5052586;28;20037;-75
2022/08/25 10:55:53;;;;;;;3.55;1.80;;;28.60;90.50;;;;;;5058819;28;20036;-75
2022/08/25 10:58:27;;;;;;;4.28;2.40;;;28.40;89.70;;;;;;5046848;28;20638;-75
2022/08/25 11:01:12;;;;;;;3.65;1.80;;;28.90;90.20;;;;;;5038046;28;20116;-76
2022/08/25 11:04:09;;;;;;;3.20;1.95;;;29.00;89.80;;;;;;5036598;28;20025;-75
2022/08/25 11:06:57;;;;;;;3.30;1.83;;;29.10;89.80;;;;;;5052147;28;20090;-76
2022/08/25 11:12:51;;;;;;;3.58;1.80;;;29.20;89.70;;;;;;5047026;28;20035;-75
2022/08/25 11:16:00;;;;;;;3.28;1.95;;;29.30;89.50;;;;;;5039388;28;20045;-76
2022/08/25 11:18:30;;;;;;;3.28;1.73;;;29.40;90.20;;;;;;5041792;28;20028;-75
2022/08/25 11:20:59;;;;;;;3.05;1.83;;;29.60;90.40;;;;;;5033101;28;20079;-75
2022/08/25 11:23:35;;;;;;;3.20;1.88;;;29.10;88.20;;;;;;5045703;28;20564;-75
2022/08/25 11:26:12;;;;;;;4.75;1.63;;;29.20;89.50;;;;;;5048456;28;20522;-76
2022/08/25 11:29:01;;;;;;;3.58;1.88;;;29.30;88.30;;;;;;5038373;28;20064;-74
2022/08/25 11:31:27;;;;;;;6.03;1.90;;;29.70;87.70;;;;;;5039597;28;20026;-75
2022/08/25 11:33:55;;;;;;;4.32;1.70;;;29.50;87.10;;;;;;5045958;28;20044;-74
2022/08/25 11:36:32;;;;;;;6.68;2.00;;;29.20;88.70;;;;;;5048348;28;20789;-72
2022/08/25 11:39:04;;;;;;;5.30;2.25;;;29.60;89.40;;;;;;5043315;28;20029;-74
2022/08/25 11:41:57;;;;;;;4.50;1.83;;;29.50;87.90;;;;;;5028708;28;20034;-74
2022/08/25 11:44:32;;;;;;;4.32;2.00;;;29.20;88.80;;;;;;5036233;28;20025;-75
2022/08/25 11:47:16;;;;;;;4.53;2.10;;;29.60;88.10;;;;;;5031125;28;20048;-75
2022/08/25 11:49:59;;;;;;;3.10;1.70;;;29.90;84.70;;;;;;5029158;28;20082;-75
2022/08/25 11:52:42;;;;;;;6.30;2.00;;;30.20;84.60;;;;;;5043524;28;20056;-74
2022/08/25 11:55:30;;;;;;;6.00;2.58;;;30.40;86.30;;;;;;5033307;28;20119;-75
2022/08/25 11:58:30;;;;;;;7.25;1.90;;;30.50;83.70;;;;;;5042880;28;20178;-75
2022/08/25 12:01:38;;;;;;;3.60;1.75;;;30.40;83.80;;;;;;5044768;28;20021;-75
2022/08/25 12:04:40;;;;;;;7.95;2.22;;;30.70;84.50;;;;;;5037598;28;20035;-75
2022/08/25 12:07:05;;;;;;;4.15;1.98;;;30.80;84.20;;;;;;5044623;28;20037;-75
2022/08/25 12:09:49;;;;;;;4.60;1.77;;;30.70;83.60;;;;;;5062059;28;20261;-76
2022/08/25 12:12:40;;;;;;;3.78;1.70;;;30.90;83.40;;;;;;5066949;28;20206;-76
2022/08/25 12:15:41;;;;;;;3.53;1.85;;;30.80;83.20;;;;;;5066217;28;20076;-77
2022/08/25 12:18:35;;;;;;;2.47;1.50;;;31.00;83.20;;;;;;5037257;28;20040;-75
2022/08/25 12:21:02;;;;;;;2.70;1.50;;;31.10;83.90;;;;;;5061532;28;20044;-75
2022/08/25 12:23:36;;;;;;;7.32;2.10;;;31.50;84.50;;;;;;5067372;28;20097;-75
2022/08/25 12:26:17;;;;;;;4.93;1.77;;;31.50;82.70;;;;;;5064172;28;21057;-74
2022/08/25 12:29:27;;;;;;;3.10;1.60;;;31.50;83.50;;;;;;5061635;28;20028;-74
2022/08/25 12:32:00;;;;;;;4.07;1.50;;;31.60;82.60;;;;;;5039591;28;20433;-75
2022/08/25 12:35:03;;;;;;;3.90;1.85;;;31.80;81.70;;;;;;5046858;28;20036;-75
2022/08/25 12:37:29;;;;;;;4.65;1.77;;;31.50;82.00;;;;;;5065279;28;20036;-75
2022/08/25 12:40:04;;;;;;;3.22;1.58;;;31.40;80.20;;;;;;5064567;28;20077;-75
2022/08/25 12:42:37;;;;;;;7.55;2.05;;;31.30;80.90;;;;;;5065561;28;20059;-75
2022/08/25 12:45:23;;;;;;;6.10;1.70;;;31.40;81.20;;;;;;5066307;28;20028;-75
2022/08/25 12:47:50;;;;;;;3.80;2.10;;;31.60;81.30;;;;;;5067094;28;20502;-75
2022/08/25 12:50:42;;;;;;;4.70;1.58;;;31.50;81.60;;;;;;5067025;28;20035;-75
2022/08/25 12:53:16;;;;;;;4.57;1.92;;;31.70;81.10;;;;;;5063487;28;20037;-75
2022/08/25 12:56:04;;;;;;;2.83;1.60;;;31.70;80.30;;;;;;5064880;28;20068;-75
2022/08/25 12:59:03;;;;;;;3.28;1.70;;;31.80;79.70;;;;;;5062788;28;20041;-75
2022/08/25 13:01:47;;;;;;;4.53;1.98;;;31.70;80.80;;;;;;5048326;28;20616;-75
2022/08/25 13:04:28;;;;;;;4.50;1.80;;;31.70;80.50;;;;;;5055140;28;20055;-75
2022/08/25 13:07:12;;;;;;;4.05;1.80;;;31.80;79.90;;;;;;5047357;28;20033;-75
2022/08/25 13:10:02;;;;;;;3.03;1.58;;;31.80;79.70;;;;;;5049641;28;20513;-75
2022/08/25 13:12:53;;;;;;;3.17;1.92;;;31.80;78.80;;;;;;5051676;28;20032;-75
2022/08/25 13:15:43;;;;;;;7.00;1.73;;;31.70;78.50;;;;;;5058846;28;20089;-75
2022/08/25 13:18:18;;;;;;;2.28;1.30;;;31.50;78.60;;;;;;5062774;28;20032;-75
2022/08/25 13:20:46;;;;;;;3.95;1.70;;;31.60;79.20;;;;;;5064943;28;20370;-75
2022/08/25 13:23:15;;;;;;;3.92;1.92;;;31.80;79.60;;;;;;5062943;28;20020;-75
2022/08/25 13:25:48;;;;;;;4.78;1.67;;;31.70;79.00;;;;;;5064019;28;20037;-75
2022/08/25 13:28:23;;;;;;;3.25;1.58;;;31.90;79.00;;;;;;5062851;28;20056;-75
2022/08/25 13:30:56;;;;;;;5.28;1.80;;;31.70;78.50;;;;;;5063823;28;20044;-75
2022/08/25 13:33:22;;;;;;;3.70;1.58;;;31.90;78.80;;;;;;5057547;28;20037;-75